sensor_id;sensor_type;location;lat;lon;timestamp;temperature;humidity
16968;DHT22;64862;54.398;10.126;2024-02-14T00:09:24;7.00;99.90
16968;DHT22;64862;54.398;10.126;2024-02-14T00:19:27;6.90;99.90
16968;DHT22;64862;54.398;10.126;2024-02-14T00:29:29;6.90;99.90
16968;DHT22;64862;54.398;10.126;2024-02-14T00:39:32;6.90;99.90
16968;DHT22;64862;54.398;10.126;2024-02-14T00:49:34;6.80;99.90
16968;DHT22;64862;54.398;10.126;2024-02-14T00:59:38;6.80;99.90
16968;DHT22;64862;54.398;10.126;2024-02-14T01:09:40;6.80;99.90
16968;DHT22;64862;54.398;10.126;2024-02-14T01:19:43;6.80;99.90
16968;DHT22;64862;54.398;10.126;2024-02-14T01:29:45;6.80;99.90
16968;DHT22;64862;54.398;10.126;2024-02-14T01:39:48;6.80;99.90
16968;DHT22;64862;54.398;10.126;2024-02-14T01:49:50;6.80;99.90
16968;DHT22;64862;54.398;10.126;2024-02-14T01:59:54;6.80;99.90
16968;DHT22;64862;54.398;10.126;2024-02-14T02:09:58;6.80;99.90
16968;DHT22;64862;54.398;10.126;2024-02-14T02:20:01;6.80;99.90
16968;DHT22;64862;54.398;10.126;2024-02-14T02:30:06;6.80;99.90
16968;DHT22;64862;54.398;10.126;2024-02-14T02:40:09;6.70;99.90
16968;DHT22;64862;54.398;10.126;2024-02-14T02:50:14;6.80;99.90
16968;DHT22;64862;54.398;10.126;2024-02-14T03:00:17;6.80;99.90
16968;DHT22;64862;54.398;10.126;2024-02-14T03:10:23;6.80;99.90
16968;DHT22;64862;54.398;10.126;2024-02-14T03:20:26;6.80;99.90
16968;DHT22;64862;54.398;10.126;2024-02-14T03:30:31;6.70;99.90
16968;DHT22;64862;54.398;10.126;2024-02-14T03:40:34;6.60;99.90
16968;DHT22;64862;54.398;10.126;2024-02-14T03:50:39;6.60;99.90
16968;DHT22;64862;54.398;10.126;2024-02-14T04:00:41;6.60;99.90
16968;DHT22;64862;54.398;10.126;2024-02-14T04:10:45;6.60;99.90
16968;DHT22;64862;54.398;10.126;2024-02-14T04:20:50;6.60;99.90
16968;DHT22;64862;54.398;10.126;2024-02-14T04:30:53;6.60;99.90
16968;DHT22;64862;54.398;10.126;2024-02-14T04:40:56;6.60;99.90
16968;DHT22;64862;54.398;10.126;2024-02-14T04:51:00;6.60;99.90
16968;DHT22;64862;54.398;10.126;2024-02-14T05:01:02;6.50;99.90
16968;DHT22;64862;54.398;10.126;2024-02-14T05:11:06;6.50;99.90
16968;DHT22;64862;54.398;10.126;2024-02-14T05:21:08;6.50;99.90
16968;DHT22;64862;54.398;10.126;2024-02-14T05:31:11;6.50;99.90
16968;DHT22;64862;54.398;10.126;2024-02-14T05:41:13;6.50;99.90
16968;DHT22;64862;54.398;10.126;2024-02-14T05:51:19;6.50;99.90
16968;DHT22;64862;54.398;10.126;2024-02-14T06:01:21;6.60;99.90
16968;DHT22;64862;54.398;10.126;2024-02-14T06:11:25;6.50;99.90
16968;DHT22;64862;54.398;10.126;2024-02-14T06:21:27;6.50;99.90
16968;DHT22;64862;54.398;10.126;2024-02-14T06:31:30;6.40;99.90
16968;DHT22;64862;54.398;10.126;2024-02-14T06:41:32;6.40;99.90
16968;DHT22;64862;54.398;10.126;2024-02-14T06:51:35;6.50;99.90
16968;DHT22;64862;54.398;10.126;2024-02-14T07:01:37;6.30;99.90
16968;DHT22;64862;54.398;10.126;2024-02-14T07:11:41;6.50;99.90
16968;DHT22;64862;54.398;10.126;2024-02-14T07:21:43;6.50;99.90
16968;DHT22;64862;54.398;10.126;2024-02-14T07:31:46;6.50;99.90
16968;DHT22;64862;54.398;10.126;2024-02-14T07:41:48;6.50;99.90
16968;DHT22;64862;54.398;10.126;2024-02-14T07:51:52;6.50;99.90
16968;DHT22;64862;54.398;10.126;2024-02-14T08:01:53;6.60;99.90
16968;DHT22;64862;54.398;10.126;2024-02-14T08:11:58;6.60;99.90
16968;DHT22;64862;54.398;10.126;2024-02-14T08:22:00;6.70;99.90
16968;DHT22;64862;54.398;10.126;2024-02-14T08:32:04;6.80;99.90
16968;DHT22;64862;54.398;10.126;2024-02-14T08:42:06;6.80;99.90
16968;DHT22;64862;54.398;10.126;2024-02-14T08:52:10;6.80;99.90
16968;DHT22;64862;54.398;10.126;2024-02-14T09:02:12;6.90;99.90
16968;DHT22;64862;54.398;10.126;2024-02-14T09:12:16;6.90;99.90
16968;DHT22;64862;54.398;10.126;2024-02-14T09:22:18;7.00;99.90
16968;DHT22;64862;54.398;10.126;2024-02-14T09:32:23;7.00;99.90
16968;DHT22;64862;54.398;10.126;2024-02-14T09:42:30;7.10;99.90
16968;DHT22;64862;54.398;10.126;2024-02-14T09:52:37;7.20;99.90
16968;DHT22;64862;54.398;10.126;2024-02-14T10:02:40;7.30;99.90
16968;DHT22;64862;54.398;10.126;2024-02-14T10:12:43;7.30;99.90
16968;DHT22;64862;54.398;10.126;2024-02-14T10:22:45;7.50;99.90
16968;DHT22;64862;54.398;10.126;2024-02-14T10:32:48;7.50;99.90
16968;DHT22;64862;54.398;10.126;2024-02-14T10:42:51;7.60;99.90
16968;DHT22;64862;54.398;10.126;2024-02-14T10:52:57;7.60;99.90
16968;DHT22;64862;54.398;10.126;2024-02-14T11:03:00;8.30;99.90
16968;DHT22;64862;54.398;10.126;2024-02-14T11:13:04;8.00;99.90
16968;DHT22;64862;54.398;10.126;2024-02-14T11:23:11;7.90;99.90
16968;DHT22;64862;54.398;10.126;2024-02-14T11:33:16;8.00;99.90
16968;DHT22;64862;54.398;10.126;2024-02-14T11:43:20;8.10;99.90
16968;DHT22;64862;54.398;10.126;2024-02-14T11:53:23;10.10;99.90
16968;DHT22;64862;54.398;10.126;2024-02-14T12:03:26;10.80;99.90
16968;DHT22;64862;54.398;10.126;2024-02-14T12:13:30;11.50;99.90
16968;DHT22;64862;54.398;10.126;2024-02-14T12:23:34;11.60;99.90
16968;DHT22;64862;54.398;10.126;2024-02-14T12:33:38;11.60;99.90
16968;DHT22;64862;54.398;10.126;2024-02-14T12:43:40;11.60;99.90
16968;DHT22;64862;54.398;10.126;2024-02-14T12:53:43;11.70;99.90
16968;DHT22;64862;54.398;10.126;2024-02-14T13:03:45;11.80;99.90
16968;DHT22;64862;54.398;10.126;2024-02-14T13:13:48;12.10;99.90
16968;DHT22;64862;54.398;10.126;2024-02-14T13:23:50;11.70;99.90
16968;DHT22;64862;54.398;10.126;2024-02-14T13:33:54;11.90;99.90
16968;DHT22;64862;54.398;10.126;2024-02-14T13:43:56;11.50;99.90
16968;DHT22;64862;54.398;10.126;2024-02-14T13:53:59;10.20;99.90
16968;DHT22;64862;54.398;10.126;2024-02-14T14:04:01;9.70;99.90
16968;DHT22;64862;54.398;10.126;2024-02-14T14:14:05;9.50;99.90
16968;DHT22;64862;54.398;10.126;2024-02-14T14:24:08;9.40;99.90
16968;DHT22;64862;54.398;10.126;2024-02-14T14:34:12;9.40;99.90
16968;DHT22;64862;54.398;10.126;2024-02-14T14:44:14;9.30;99.90
16968;DHT22;64862;54.398;10.126;2024-02-14T14:54:17;9.20;99.90
16968;DHT22;64862;54.398;10.126;2024-02-14T15:04:19;9.20;99.90
16968;DHT22;64862;54.398;10.126;2024-02-14T15:14:22;9.20;99.90
16968;DHT22;64862;54.398;10.126;2024-02-14T15:24:24;9.20;99.90
16968;DHT22;64862;54.398;10.126;2024-02-14T15:34:28;9.10;99.90
16968;DHT22;64862;54.398;10.126;2024-02-14T15:44:31;9.10;99.90
16968;DHT22;64862;54.398;10.126;2024-02-14T15:54:34;9.20;99.90
16968;DHT22;64862;54.398;10.126;2024-02-14T16:04:44;9.10;99.90
16968;DHT22;64862;54.398;10.126;2024-02-14T16:14:48;9.10;99.90
16968;DHT22;64862;54.398;10.126;2024-02-14T16:24:50;9.10;99.90
16968;DHT22;64862;54.398;10.126;2024-02-14T16:34:54;9.10;99.90
16968;DHT22;64862;54.398;10.126;2024-02-14T16:44:56;9.00;99.90
16968;DHT22;64862;54.398;10.126;2024-02-14T16:54:59;9.10;99.90
16968;DHT22;64862;54.398;10.126;2024-02-14T17:05:01;9.00;99.90
16968;DHT22;64862;54.398;10.126;2024-02-14T17:15:06;9.00;99.90
16968;DHT22;64862;54.398;10.126;2024-02-14T17:25:10;9.00;99.90
16968;DHT22;64862;54.398;10.126;2024-02-14T17:35:13;9.00;99.90
16968;DHT22;64862;54.398;10.126;2024-02-14T17:45:16;9.10;99.90
16968;DHT22;64862;54.398;10.126;2024-02-14T17:55:20;9.10;99.90
16968;DHT22;64862;54.398;10.126;2024-02-14T18:05:22;9.10;99.90
16968;DHT22;64862;54.398;10.126;2024-02-14T18:15:25;9.10;99.90
16968;DHT22;64862;54.398;10.126;2024-02-14T18:25:27;9.10;99.90
16968;DHT22;64862;54.398;10.126;2024-02-14T18:35:31;9.10;99.90
16968;DHT22;64862;54.398;10.126;2024-02-14T18:45:32;9.10;99.90
16968;DHT22;64862;54.398;10.126;2024-02-14T18:55:36;9.10;99.90
16968;DHT22;64862;54.398;10.126;2024-02-14T19:05:38;9.10;99.90
16968;DHT22;64862;54.398;10.126;2024-02-14T19:15:41;9.10;99.90
16968;DHT22;64862;54.398;10.126;2024-02-14T19:25:43;9.20;99.90
16968;DHT22;64862;54.398;10.126;2024-02-14T19:35:47;9.20;99.90
16968;DHT22;64862;54.398;10.126;2024-02-14T19:45:49;9.30;99.90
16968;DHT22;64862;54.398;10.126;2024-02-14T19:55:52;9.30;99.90
16968;DHT22;64862;54.398;10.126;2024-02-14T20:05:54;9.40;99.90
16968;DHT22;64862;54.398;10.126;2024-02-14T20:15:57;9.60;99.90
16968;DHT22;64862;54.398;10.126;2024-02-14T20:26:00;9.60;99.90
16968;DHT22;64862;54.398;10.126;2024-02-14T20:36:04;9.60;99.90
16968;DHT22;64862;54.398;10.126;2024-02-14T20:46:08;9.70;99.90
16968;DHT22;64862;54.398;10.126;2024-02-14T20:56:11;9.70;99.90
16968;DHT22;64862;54.398;10.126;2024-02-14T21:06:13;9.70;99.90
16968;DHT22;64862;54.398;10.126;2024-02-14T21:16:17;9.70;99.90
16968;DHT22;64862;54.398;10.126;2024-02-14T21:26:19;9.70;99.90
16968;DHT22;64862;54.398;10.126;2024-02-14T21:36:22;9.80;99.90
16968;DHT22;64862;54.398;10.126;2024-02-14T21:46:24;9.80;99.90
16968;DHT22;64862;54.398;10.126;2024-02-14T21:56:28;9.80;99.90
16968;DHT22;64862;54.398;10.126;2024-02-14T22:06:32;9.80;99.90
16968;DHT22;64862;54.398;10.126;2024-02-14T22:16:36;9.80;99.90
16968;DHT22;64862;54.398;10.126;2024-02-14T22:26:38;9.90;99.90
16968;DHT22;64862;54.398;10.126;2024-02-14T22:36:41;9.90;99.90
16968;DHT22;64862;54.398;10.126;2024-02-14T22:46:43;9.90;99.90
16968;DHT22;64862;54.398;10.126;2024-02-14T22:56:47;9.90;99.90
16968;DHT22;64862;54.398;10.126;2024-02-14T23:06:49;9.90;99.90
16968;DHT22;64862;54.398;10.126;2024-02-14T23:16:52;9.90;99.90
16968;DHT22;64862;54.398;10.126;2024-02-14T23:26:54;9.90;99.90
16968;DHT22;64862;54.398;10.126;2024-02-14T23:36:58;9.90;99.90
16968;DHT22;64862;54.398;10.126;2024-02-14T23:47:00;10.00;99.90
16968;DHT22;64862;54.398;10.126;2024-02-14T23:57:04;10.00;99.90
